Time;durP1;ratioP1;P1;durP2;ratioP2;P2;SDS_P1;SDS_P2;PMS_P1;PMS_P2;Temp;Humidity;BMP_temperature;BMP_pressure;BME280_temperature;BME280_humidity;BME280_pressure;Samples;Min_cycle;Max_cycle;Signal;HPM_P1;HPM_P2
2022/09/01 00:00:52;;;;;;;1.60;0.85;;;16.30;96.90;;;;;;4320377;28;10000016;-74
2022/09/01 00:03:21;;;;;;;5.25;0.93;;;16.20;96.90;;;;;;5002173;28;21256;-74
2022/09/01 00:05:49;;;;;;;3.65;0.80;;;16.20;96.90;;;;;;5010397;28;20033;-75
2022/09/01 00:08:15;;;;;;;1.33;0.80;;;16.20;96.90;;;;;;5015887;28;20036;-74
2022/09/01 00:10:40;;;;;;;2.05;0.80;;;16.20;96.90;;;;;;5013745;28;20022;-74
2022/09/01 00:13:07;;;;;;;3.83;1.00;;;16.10;96.90;;;;;;5011560;28;20029;-74
2022/09/01 00:15:34;;;;;;;1.42;0.80;;;16.30;97.80;;;;;;5014566;28;20025;-75
2022/09/01 00:18:00;;;;;;;1.75;0.68;;;16.20;99.80;;;;;;5011208;28;20033;-75
2022/09/01 00:20:27;;;;;;;4.20;0.82;;;16.20;99.60;;;;;;5017206;28;20342;-75
2022/09/01 00:22:52;;;;;;;1.55;0.82;;;16.20;98.20;;;;;;5012966;28;20505;-74
2022/09/01 00:25:19;;;;;;;1.50;0.80;;;16.00;96.80;;;;;;5010840;28;20034;-74
2022/09/01 00:27:46;;;;;;;3.05;1.00;;;16.00;97.00;;;;;;5016109;28;20050;-74
2022/09/01 00:30:12;;;;;;;1.73;1.00;;;16.00;97.10;;;;;;5018325;28;20076;-74
2022/09/01 00:32:37;;;;;;;2.97;0.90;;;15.90;97.30;;;;;;5013787;28;20394;-74
2022/09/01 00:35:04;;;;;;;3.53;1.10;;;15.90;97.50;;;;;;5012872;28;20021;-74
2022/09/01 00:37:30;;;;;;;3.20;1.10;;;15.90;97.40;;;;;;5008545;28;20099;-74
2022/09/01 00:39:56;;;;;;;4.20;1.30;;;15.80;97.40;;;;;;5013763;28;20273;-74
2022/09/01 00:42:22;;;;;;;3.05;1.35;;;15.90;97.40;;;;;;5011906;28;20049;-74
2022/09/01 00:44:48;;;;;;;2.58;1.02;;;15.90;97.50;;;;;;5004380;28;20022;-74
2022/09/01 00:47:13;;;;;;;4.35;1.27;;;15.80;97.40;;;;;;5012890;28;20030;-74
2022/09/01 00:49:44;;;;;;;3.60;0.90;;;15.80;97.40;;;;;;5007331;28;20602;-74
2022/09/01 00:52:24;;;;;;;2.10;1.10;;;15.80;97.50;;;;;;5017118;28;20381;-74
2022/09/01 00:54:57;;;;;;;2.45;1.27;;;15.80;97.70;;;;;;5016498;28;20060;-74
2022/09/01 00:57:23;;;;;;;4.45;1.10;;;15.70;97.60;;;;;;5021015;28;20033;-74
2022/09/01 00:59:57;;;;;;;2.60;1.00;;;15.70;97.80;;;;;;5015158;28;20060;-74
2022/09/01 01:02:24;;;;;;;4.72;1.42;;;15.70;98.00;;;;;;5015176;28;20033;-74
2022/09/01 01:04:51;;;;;;;2.20;1.10;;;15.60;98.10;;;;;;5013761;28;20029;-74
2022/09/01 01:07:21;;;;;;;6.68;1.52;;;15.60;98.10;;;;;;5012272;28;20044;-74
2022/09/01 01:09:47;;;;;;;2.85;1.63;;;15.60;98.10;;;;;;5010283;28;20029;-74
2022/09/01 01:12:16;;;;;;;4.45;1.50;;;15.50;98.20;;;;;;5015058;28;20504;-74
2022/09/01 01:14:44;;;;;;;4.93;1.35;;;15.50;98.20;;;;;;5005284;28;20389;-74
2022/09/01 01:17:10;;;;;;;5.97;1.60;;;15.50;98.30;;;;;;5013102;28;20041;-74
2022/09/01 01:25:15;;;;;;;3.25;1.30;;;15.50;98.40;;;;;;5011946;28;20974;-74
2022/09/01 01:27:41;;;;;;;2.55;1.10;;;15.40;98.40;;;;;;5014521;28;20038;-74
2022/09/01 01:30:09;;;;;;;5.25;1.10;;;15.40;98.50;;;;;;5019534;28;20918;-74
2022/09/01 01:32:41;;;;;;;1.85;1.02;;;15.40;98.60;;;;;;5014741;28;20164;-74
2022/09/01 01:35:13;;;;;;;3.53;1.10;;;15.40;98.60;;;;;;5011985;28;20044;-75
2022/09/01 01:37:43;;;;;;;3.53;1.10;;;15.40;98.60;;;;;;5010542;28;20393;-74
2022/09/01 01:40:14;;;;;;;3.25;1.20;;;15.30;98.60;;;;;;5009491;28;20025;-76
2022/09/01 01:42:47;;;;;;;2.97;1.27;;;15.30;98.70;;;;;;5008924;28;20362;-74
2022/09/01 01:45:16;;;;;;;4.63;1.40;;;15.30;98.70;;;;;;5014578;28;20108;-74
2022/09/01 01:47:46;;;;;;;2.38;1.40;;;15.30;98.80;;;;;;5016108;28;20046;-76
2022/09/01 01:50:13;;;;;;;2.65;1.00;;;15.20;98.90;;;;;;5020282;28;20025;-74
2022/09/01 01:52:39;;;;;;;2.28;1.05;;;15.20;99.00;;;;;;5018249;28;20186;-75
2022/09/01 01:55:11;;;;;;;4.78;1.02;;;15.10;99.00;;;;;;5018457;28;20017;-75
2022/09/01 01:57:47;;;;;;;4.00;1.30;;;15.20;99.30;;;;;;5015430;28;20028;-74
2022/09/01 02:00:18;;;;;;;4.38;1.25;;;15.10;99.10;;;;;;5014982;28;20445;-74
2022/09/01 02:02:47;;;;;;;6.30;1.45;;;15.00;99.40;;;;;;5021766;28;20486;-74
2022/09/01 02:05:19;;;;;;;3.28;1.23;;;15.00;99.40;;;;;;5011867;28;20029;-74
2022/09/01 02:07:45;;;;;;;5.53;1.10;;;15.00;99.50;;;;;;5018258;28;20377;-74
2022/09/01 02:10:11;;;;;;;5.43;1.27;;;14.90;99.60;;;;;;5024280;28;20030;-74
2022/09/01 02:12:36;;;;;;;5.13;1.00;;;15.00;99.60;;;;;;5018967;28;20022;-74
2022/09/01 02:15:02;;;;;;;2.63;1.00;;;14.90;99.70;;;;;;5012423;28;20350;-73
2022/09/01 02:17:28;;;;;;;1.98;0.95;;;14.90;99.70;;;;;;5018261;28;20026;-74
2022/09/01 02:19:56;;;;;;;1.65;1.02;;;14.90;99.90;;;;;;5015368;28;20029;-74
2022/09/01 02:22:21;;;;;;;1.25;0.80;;;14.80;99.80;;;;;;5008796;28;20049;-74
2022/09/01 02:24:47;;;;;;;2.72;1.15;;;14.80;99.90;;;;;;5013229;28;20385;-74
2022/09/01 02:27:14;;;;;;;1.90;1.15;;;14.90;99.90;;;;;;5011882;28;20026;-73
2022/09/01 02:29:40;;;;;;;2.17;1.00;;;14.90;99.90;;;;;;5022061;28;20036;-74
2022/09/01 02:32:05;;;;;;;5.03;1.10;;;14.90;99.90;;;;;;5018822;28;20128;-74
2022/09/01 02:34:33;;;;;;;2.17;0.93;;;14.90;99.90;;;;;;5008752;28;20175;-74
2022/09/01 02:36:59;;;;;;;2.85;1.10;;;14.90;99.90;;;;;;5008102;28;20569;-74
2022/09/01 02:39:32;;;;;;;2.83;1.00;;;14.80;99.90;;;;;;5013387;28;20121;-74
2022/09/01 02:42:00;;;;;;;;;;;14.80;99.90;;;;;;5010685;28;20537;-74
2022/09/01 02:44:26;;;;;;;1.85;1.02;;;14.80;99.90;;;;;;5011752;28;19921;-74
2022/09/01 02:46:52;;;;;;;1.05;0.80;;;14.70;99.90;;;;;;5021728;28;20048;-73
2022/09/01 02:49:23;;;;;;;2.88;0.90;;;14.60;99.90;;;;;;5018302;28;20026;-76
2022/09/01 02:51:52;;;;;;;3.17;1.08;;;14.60;99.90;;;;;;5010546;28;20025;-74
2022/09/01 02:54:21;;;;;;;4.63;0.90;;;14.60;99.90;;;;;;5004234;28;20059;-74
2022/09/01 02:56:48;;;;;;;1.55;0.80;;;14.60;99.90;;;;;;5018830;28;20560;-74
2022/09/01 02:59:20;;;;;;;5.10;0.90;;;14.60;99.90;;;;;;5014912;28;20104;-74
2022/09/01 03:01:47;;;;;;;1.70;1.02;;;14.60;99.90;;;;;;5018251;28;20033;-74
2022/09/01 03:04:13;;;;;;;2.92;1.10;;;14.60;99.90;;;;;;5012426;28;20131;-74
2022/09/01 03:06:39;;;;;;;5.07;1.50;;;14.60;99.90;;;;;;5017119;28;20029;-74
2022/09/01 03:09:08;;;;;;;6.43;1.30;;;14.60;99.90;;;;;;5015245;28;20022;-74
2022/09/01 03:11:36;;;;;;;3.88;1.58;;;14.50;99.90;;;;;;5021549;28;20033;-74
2022/09/01 03:14:03;;;;;;;2.30;1.15;;;14.50;99.90;;;;;;5019317;28;20735;-74
2022/09/01 03:16:29;;;;;;;3.35;1.30;;;14.50;99.90;;;;;;5012155;28;20105;-74
2022/09/01 03:18:56;;;;;;;3.22;1.10;;;14.50;99.90;;;;;;5012622;28;20124;-74
2022/09/01 03:21:22;;;;;;;5.10;1.60;;;14.50;99.90;;;;;;5015963;28;20036;-74
2022/09/01 03:23:51;;;;;;;3.63;1.20;;;14.40;99.90;;;;;;5019393;28;20033;-74
2022/09/01 03:26:20;;;;;;;2.67;1.30;;;14.40;99.90;;;;;;5011263;28;21289;-74
2022/09/01 03:28:47;;;;;;;8.30;1.60;;;14.40;99.90;;;;;;5016809;28;20087;-74
2022/09/01 03:31:13;;;;;;;3.22;1.48;;;14.40;99.90;;;;;;5018065;28;20436;-74
2022/09/01 03:33:38;;;;;;;2.78;1.30;;;14.40;99.90;;;;;;5019168;28;20029;-76
2022/09/01 03:36:05;;;;;;;6.07;1.40;;;14.40;99.90;;;;;;5014129;28;20025;-74
2022/09/01 03:38:30;;;;;;;4.90;1.30;;;14.40;99.90;;;;;;5018129;28;20038;-74
2022/09/01 03:41:02;;;;;;;5.68;1.35;;;14.40;99.90;;;;;;5015533;28;20105;-73
2022/09/01 03:43:29;;;;;;;2.85;1.45;;;14.40;99.90;;;;;;5017379;28;20029;-76
2022/09/01 03:45:59;;;;;;;2.53;1.45;;;14.30;99.90;;;;;;5012877;28;20053;-76
2022/09/01 03:48:27;;;;;;;2.17;1.30;;;14.30;99.90;;;;;;5019819;28;20046;-76
2022/09/01 03:50:53;;;;;;;4.20;1.45;;;14.20;99.90;;;;;;5014227;28;20022;-74
2022/09/01 03:53:22;;;;;;;4.85;1.40;;;14.20;99.90;;;;;;5006883;28;20068;-74
2022/09/01 03:55:48;;;;;;;1.80;1.23;;;14.20;99.90;;;;;;5016622;28;20033;-76
2022/09/01 03:58:19;;;;;;;3.35;1.45;;;14.20;99.90;;;;;;5011476;28;20492;-73
2022/09/01 04:00:54;;;;;;;3.72;1.35;;;14.20;99.90;;;;;;5019951;28;20041;-76
2022/09/01 04:03:22;;;;;;;2.58;1.20;;;14.20;99.90;;;;;;5005003;28;21059;-74
2022/09/01 04:05:50;;;;;;;5.53;1.40;;;14.20;99.90;;;;;;5009655;28;20097;-73
2022/09/01 04:08:16;;;;;;;3.05;1.20;;;14.10;99.90;;;;;;5013024;28;20029;-74
2022/09/01 04:10:46;;;;;;;4.18;1.20;;;14.10;99.90;;;;;;5015040;28;20025;-74
2022/09/01 04:13:12;;;;;;;6.18;1.30;;;14.00;99.90;;;;;;5014447;28;20094;-74
2022/09/01 04:15:38;;;;;;;5.10;1.30;;;14.00;99.90;;;;;;5017911;28;20115;-74
2022/09/01 04:18:18;;;;;;;5.15;1.30;;;14.00;99.90;;;;;;5009565;28;20999;-74
2022/09/01 04:20:49;;;;;;;2.95;1.27;;;14.00;99.90;;;;;;5012484;28;20037;-76
2022/09/01 04:23:28;;;;;;;3.47;1.33;;;13.90;99.90;;;;;;5007916;28;20030;-76
2022/09/01 04:26:22;;;;;;;3.72;1.40;;;13.90;99.90;;;;;;5013456;28;20040;-76
2022/09/01 04:28:49;;;;;;;3.10;1.30;;;13.90;99.90;;;;;;5006271;28;20334;-76
2022/09/01 04:31:20;;;;;;;5.25;1.40;;;13.90;99.90;;;;;;5011234;28;20795;-76
2022/09/01 04:33:51;;;;;;;3.67;1.50;;;13.90;99.90;;;;;;5013215;28;20033;-76
2022/09/01 04:36:32;;;;;;;4.70;1.15;;;13.90;99.90;;;;;;5017178;28;20482;-76
2022/09/01 04:39:00;;;;;;;2.38;1.27;;;13.80;99.90;;;;;;5019754;28;20108;-76
2022/09/01 04:41:32;;;;;;;2.70;1.30;;;13.80;99.90;;;;;;5015221;28;20350;-76
2022/09/01 04:44:03;;;;;;;2.38;1.10;;;13.80;99.90;;;;;;5016125;28;20378;-76
2022/09/01 04:46:31;;;;;;;5.63;1.40;;;13.80;99.90;;;;;;5015587;28;20037;-76
2022/09/01 04:48:58;;;;;;;2.28;1.00;;;13.80;99.90;;;;;;5020949;28;20026;-76
2022/09/01 04:51:26;;;;;;;4.65;1.23;;;13.80;99.90;;;;;;5017559;28;20247;-76
2022/09/01 04:53:53;;;;;;;2.70;1.10;;;13.70;99.90;;;;;;5013079;28;20063;-76
2022/09/01 04:56:21;;;;;;;3.20;1.08;;;13.70;99.90;;;;;;5007973;28;20346;-76
2022/09/01 04:58:48;;;;;;;3.28;1.08;;;13.70;99.90;;;;;;5017015;28;20117;-76
2022/09/01 05:01:23;;;;;;;3.75;1.35;;;13.70;99.90;;;;;;5012872;28;20514;-76
2022/09/01 05:03:57;;;;;;;3.28;1.15;;;13.70;99.90;;;;;;5015917;28;20968;-76
2022/09/01 05:06:23;;;;;;;1.67;1.10;;;13.60;99.90;;;;;;5007035;28;20033;-76
2022/09/01 05:08:50;;;;;;;1.90;1.23;;;13.60;99.90;;;;;;5017657;28;20036;-76
2022/09/01 05:11:17;;;;;;;1.63;1.13;;;13.70;99.90;;;;;;5019320;28;20033;-76
2022/09/01 05:13:44;;;;;;;3.40;1.52;;;13.60;99.90;;;;;;5015128;28;20040;-76
2022/09/01 05:16:13;;;;;;;3.90;1.35;;;13.60;99.90;;;;;;5016398;28;20049;-76
2022/09/01 05:18:41;;;;;;;2.45;1.20;;;13.60;99.90;;;;;;5008462;28;20033;-76
2022/09/01 05:21:09;;;;;;;3.55;1.50;;;13.60;99.90;;;;;;5014712;28;20061;-75
2022/09/01 05:23:39;;;;;;;5.15;1.33;;;13.70;99.90;;;;;;5007149;28;21039;-75
2022/09/01 05:26:16;;;;;;;2.03;1.00;;;13.70;99.90;;;;;;5015416;28;20041;-76
2022/09/01 05:28:47;;;;;;;3.25;1.48;;;13.70;99.90;;;;;;5005259;28;20025;-76
2022/09/01 05:31:13;;;;;;;3.20;1.20;;;13.70;99.90;;;;;;5015783;28;20038;-76
2022/09/01 05:33:44;;;;;;;2.30;1.38;;;13.70;99.90;;;;;;5015492;28;20033;-76
2022/09/01 05:36:12;;;;;;;4.18;1.30;;;13.70;99.90;;;;;;5019702;28;20108;-76
2022/09/01 05:38:41;;;;;;;6.00;1.40;;;13.70;99.90;;;;;;5015290;28;20030;-78
2022/09/01 05:41:08;;;;;;;8.05;1.63;;;13.70;99.90;;;;;;5019041;28;20045;-77
2022/09/01 05:43:35;;;;;;;7.05;1.77;;;13.70;99.90;;;;;;5021467;28;20040;-76
2022/09/01 05:46:06;;;;;;;5.80;1.70;;;13.70;99.90;;;;;;5012987;28;20036;-76
2022/09/01 05:48:38;;;;;;;5.18;1.58;;;13.70;99.90;;;;;;5016359;28;20077;-76
2022/09/01 05:51:06;;;;;;;1.70;1.00;;;13.70;99.90;;;;;;5015359;28;20029;-77
2022/09/01 05:53:32;;;;;;;5.22;1.50;;;13.70;99.90;;;;;;5015590;28;20194;-78
2022/09/01 05:56:05;;;;;;;2.70;1.40;;;13.80;99.90;;;;;;5010877;28;20115;-77
2022/09/01 05:58:33;;;;;;;5.13;1.65;;;13.80;99.90;;;;;;5014399;28;20107;-75
2022/09/01 06:00:59;;;;;;;4.25;1.50;;;13.80;99.90;;;;;;5011536;28;20419;-73
2022/09/01 06:03:26;;;;;;;5.68;1.75;;;13.80;99.90;;;;;;5005651;28;20182;-76
2022/09/01 06:05:54;;;;;;;6.18;1.70;;;13.80;99.90;;;;;;5000920;28;20585;-75
2022/09/01 06:08:23;;;;;;;3.75;1.48;;;13.90;99.90;;;;;;5011346;28;20025;-76
2022/09/01 06:10:50;;;;;;;6.15;1.70;;;13.90;99.90;;;;;;5016166;28;20513;-75
2022/09/01 06:13:20;;;;;;;4.03;1.58;;;13.90;99.90;;;;;;5005131;28;20557;-76
2022/09/01 06:15:52;;;;;;;5.03;1.58;;;13.90;99.90;;;;;;5020006;28;20029;-75
2022/09/01 06:18:18;;;;;;;4.50;1.52;;;14.00;99.90;;;;;;5016521;28;20515;-76
2022/09/01 06:20:46;;;;;;;5.35;1.50;;;14.00;99.90;;;;;;5011406;28;20030;-76
2022/09/01 06:23:14;;;;;;;5.53;1.48;;;14.10;99.90;;;;;;5013341;28;20310;-76
2022/09/01 06:25:42;;;;;;;6.20;1.60;;;14.10;99.90;;;;;;5012959;28;20805;-76
2022/09/01 06:28:10;;;;;;;5.07;1.52;;;14.20;99.90;;;;;;5010979;28;20030;-77
2022/09/01 06:30:37;;;;;;;3.78;1.40;;;14.30;99.90;;;;;;5021342;28;20028;-76
2022/09/01 06:33:08;;;;;;;3.97;1.55;;;14.40;99.90;;;;;;5016299;28;20038;-76
2022/09/01 06:35:35;;;;;;;5.90;1.42;;;14.50;99.90;;;;;;5006297;28;20029;-76
2022/09/01 06:38:01;;;;;;;4.57;1.60;;;14.50;99.90;;;;;;5014640;28;20037;-77
2022/09/01 06:40:27;;;;;;;3.60;1.70;;;14.60;99.90;;;;;;5008928;28;20108;-76
2022/09/01 06:42:53;;;;;;;7.65;1.50;;;14.60;99.90;;;;;;5014650;28;20227;-75
2022/09/01 06:45:22;;;;;;;3.97;1.83;;;14.60;99.90;;;;;;5015684;28;20033;-76
2022/09/01 06:47:54;;;;;;;5.38;1.80;;;14.70;99.90;;;;;;5016217;28;20018;-78
2022/09/01 06:50:20;;;;;;;4.25;1.55;;;14.80;99.90;;;;;;5022859;28;20018;-76
2022/09/01 06:53:02;;;;;;;6.05;1.77;;;14.90;99.90;;;;;;5016833;28;20249;-76
2022/09/01 06:55:30;;;;;;;6.57;1.65;;;14.90;99.90;;;;;;5015463;28;20033;-76
2022/09/01 06:57:56;;;;;;;5.78;1.77;;;15.10;99.90;;;;;;5012108;28;20385;-73
2022/09/01 07:00:22;;;;;;;3.38;1.48;;;15.30;99.90;;;;;;5007915;28;20069;-76
2022/09/01 07:02:54;;;;;;;3.97;1.63;;;15.50;99.90;;;;;;5016115;28;20025;-75
2022/09/01 07:05:20;;;;;;;6.22;1.38;;;15.60;99.90;;;;;;5015479;28;20382;-75
2022/09/01 07:07:53;;;;;;;2.10;1.50;;;15.80;99.90;;;;;;5012749;28;20021;-75
2022/09/01 07:10:22;;;;;;;4.20;1.30;;;15.90;99.90;;;;;;5017690;28;20060;-75
2022/09/01 07:12:54;;;;;;;6.53;1.50;;;15.90;99.90;;;;;;5005499;28;20034;-77
2022/09/01 07:15:20;;;;;;;2.60;1.30;;;15.90;99.90;;;;;;5008598;28;20022;-75
2022/09/01 07:17:57;;;;;;;4.65;1.40;;;15.90;99.90;;;;;;5014930;28;20556;-76
2022/09/01 07:20:26;;;;;;;3.28;1.20;;;15.80;99.90;;;;;;5016868;28;20032;-76
2022/09/01 07:22:53;;;;;;;4.35;1.25;;;15.80;99.90;;;;;;5020061;28;20029;-76
2022/09/01 07:25:19;;;;;;;3.90;1.30;;;15.90;99.90;;;;;;5012570;28;20030;-75
2022/09/01 07:27:49;;;;;;;4.55;1.30;;;16.10;99.90;;;;;;5022387;28;20033;-76
2022/09/01 07:30:17;;;;;;;4.07;1.10;;;16.20;99.90;;;;;;5014115;28;21079;-76
2022/09/01 07:32:43;;;;;;;3.72;1.10;;;16.40;99.90;;;;;;5017550;28;21795;-76
2022/09/01 07:35:10;;;;;;;3.80;1.27;;;16.50;99.90;;;;;;5023789;28;20481;-76
2022/09/01 07:37:36;;;;;;;2.60;1.13;;;16.50;99.90;;;;;;5023299;28;20025;-76
2022/09/01 07:40:08;;;;;;;3.20;1.35;;;16.50;99.90;;;;;;5023456;28;20034;-76
2022/09/01 07:42:35;;;;;;;4.15;1.40;;;16.60;99.90;;;;;;5018601;28;20029;-75
2022/09/01 07:45:07;;;;;;;6.97;1.30;;;16.60;99.90;;;;;;5014331;28;20155;-76
2022/09/01 07:47:35;;;;;;;3.03;1.38;;;16.60;99.90;;;;;;5012564;28;20036;-76
2022/09/01 07:50:06;;;;;;;2.83;1.15;;;16.70;99.90;;;;;;5015628;28;20029;-73
2022/09/01 07:52:41;;;;;;;3.30;1.02;;;16.90;99.90;;;;;;5017368;28;20448;-74
2022/09/01 07:55:12;;;;;;;3.30;1.00;;;16.90;99.90;;;;;;5011837;28;20444;-73
2022/09/01 07:57:41;;;;;;;5.03;1.30;;;17.00;99.90;;;;;;5006883;28;20028;-73
2022/09/01 08:00:08;;;;;;;3.95;1.25;;;;;;;;;;5015048;28;20041;-75
2022/09/01 08:02:33;;;;;;;4.63;1.30;;;17.20;99.90;;;;;;5014280;28;20044;-73
2022/09/01 08:04:59;;;;;;;8.63;1.42;;;17.20;99.90;;;;;;5021938;28;20029;-73
2022/09/01 08:07:25;;;;;;;2.75;1.27;;;17.40;99.90;;;;;;5022594;28;20048;-76
2022/09/01 08:09:50;;;;;;;3.03;1.10;;;17.60;99.60;;;;;;5016382;28;20113;-73
2022/09/01 08:12:17;;;;;;;5.22;1.10;;;17.80;99.50;;;;;;5011164;28;20033;-73
2022/09/01 08:14:42;;;;;;;3.80;1.20;;;17.80;99.40;;;;;;5011703;28;20481;-73
2022/09/01 08:17:08;;;;;;;5.15;1.20;;;17.80;99.10;;;;;;5012289;28;20088;-73
2022/09/01 08:19:35;;;;;;;3.42;1.20;;;17.80;99.10;;;;;;5017612;28;20663;-73
2022/09/01 08:22:01;;;;;;;7.07;1.20;;;17.90;98.70;;;;;;5015452;28;20030;-76
2022/09/01 08:24:27;;;;;;;4.95;1.05;;;17.90;98.50;;;;;;5020107;28;20040;-75
2022/09/01 08:26:52;;;;;;;4.03;0.98;;;17.90;98.90;;;;;;5017849;28;20029;-77
2022/09/01 08:29:18;;;;;;;10.80;1.40;;;17.90;98.60;;;;;;5018512;28;20057;-75
2022/09/01 08:31:46;;;;;;;4.57;1.08;;;18.00;98.80;;;;;;5008988;28;20075;-74
2022/09/01 08:34:11;;;;;;;5.60;1.20;;;18.10;98.40;;;;;;5010204;28;20028;-74
2022/09/01 08:36:37;;;;;;;1.38;0.90;;;18.10;98.20;;;;;;5012234;28;20022;-74
2022/09/01 08:39:03;;;;;;;1.90;0.90;;;18.20;98.20;;;;;;5011602;28;20098;-74
2022/09/01 08:41:54;;;;;;;4.25;0.90;;;18.30;97.90;;;;;;5000340;28;20088;-74
2022/09/01 08:44:33;;;;;;;2.15;1.08;;;18.60;97.70;;;;;;5014747;28;20060;-74
2022/09/01 08:47:04;;;;;;;4.90;1.20;;;18.80;97.10;;;;;;5010285;28;20034;-73
2022/09/01 08:49:32;;;;;;;4.03;1.10;;;19.00;97.00;;;;;;5013045;28;20022;-72
2022/09/01 08:52:23;;;;;;;1.83;1.10;;;19.20;96.70;;;;;;5013765;28;20040;-75
2022/09/01 08:54:51;;;;;;;4.32;0.85;;;19.30;96.20;;;;;;5017812;28;20026;-74
2022/09/01 08:57:44;;;;;;;4.32;1.17;;;19.40;95.90;;;;;;5010138;28;20026;-74
2022/09/01 09:00:13;;;;;;;2.13;0.90;;;19.60;95.80;;;;;;5015113;28;20061;-74
2022/09/01 09:02:57;;;;;;;6.72;1.35;;;19.70;95.30;;;;;;5015551;28;20779;-73
2022/09/01 09:05:58;;;;;;;2.10;0.90;;;19.80;94.80;;;;;;5019084;28;20036;-74
2022/09/01 09:08:42;;;;;;;3.42;0.90;;;19.90;94.70;;;;;;5007096;28;20088;-74
2022/09/01 09:11:18;;;;;;;2.15;1.00;;;20.00;94.60;;;;;;5019284;28;20025;-74
2022/09/01 09:13:58;;;;;;;7.25;1.10;;;20.10;94.10;;;;;;5016597;28;20037;-75
2022/09/01 09:16:36;;;;;;;1.00;0.70;;;20.20;94.00;;;;;;5020248;28;20036;-74
2022/09/01 09:19:23;;;;;;;5.22;0.93;;;20.30;93.10;;;;;;5027360;28;20116;-75
2022/09/01 09:21:51;;;;;;;3.25;1.00;;;20.40;93.30;;;;;;5028111;28;20030;-74
2022/09/01 09:24:24;;;;;;;4.13;1.00;;;20.40;92.30;;;;;;5018097;28;20060;-76
2022/09/01 09:26:52;;;;;;;2.58;0.95;;;20.50;91.80;;;;;;5009060;28;20030;-75
2022/09/01 09:29:20;;;;;;;3.10;1.00;;;20.60;91.60;;;;;;5014399;28;20030;-76
2022/09/01 09:31:50;;;;;;;1.98;0.73;;;20.80;91.50;;;;;;5012829;28;20029;-75
2022/09/01 09:34:37;;;;;;;4.25;0.98;;;21.00;91.50;;;;;;5020441;28;20033;-75
2022/09/01 09:37:22;;;;;;;1.85;1.00;;;21.20;89.50;;;;;;5009351;28;20395;-76
2022/09/01 09:40:12;;;;;;;2.50;0.95;;;21.30;87.30;;;;;;5020897;28;20045;-75
2022/09/01 09:42:40;;;;;;;1.70;0.90;;;21.40;87.80;;;;;;5015111;28;20042;-75
2022/09/01 09:45:43;;;;;;;1.27;0.90;;;21.50;85.30;;;;;;5015080;28;20029;-72
2022/09/01 09:48:26;;;;;;;2.53;0.70;;;21.40;86.10;;;;;;5013224;28;20021;-72
2022/09/01 09:50:52;;;;;;;1.65;0.75;;;21.30;82.70;;;;;;5018392;28;20033;-72
2022/09/01 09:53:28;;;;;;;3.22;1.15;;;21.20;84.30;;;;;;5011014;28;20025;-76
2022/09/01 09:56:03;;;;;;;1.48;0.80;;;21.20;83.60;;;;;;5023593;28;20061;-74
2022/09/01 09:58:35;;;;;;;2.80;0.90;;;21.50;82.80;;;;;;5014959;28;20049;-75
2022/09/01 10:01:06;;;;;;;4.78;1.10;;;21.80;81.20;;;;;;5012970;28;20044;-74
2022/09/01 10:03:41;;;;;;;1.30;0.80;;;21.90;80.90;;;;;;5014473;28;20057;-74
2022/09/01 10:06:33;;;;;;;2.17;0.98;;;22.10;81.60;;;;;;5016675;28;20053;-74
2022/09/01 10:09:03;;;;;;;1.00;0.90;;;22.20;79.60;;;;;;5013936;28;20027;-74
2022/09/01 10:11:40;;;;;;;0.85;0.75;;;22.00;79.10;;;;;;5015660;28;20113;-74
2022/09/01 10:14:20;;;;;;;0.77;0.60;;;21.70;79.60;;;;;;5012508;28;20099;-74
2022/09/01 10:16:51;;;;;;;2.90;0.93;;;21.50;79.50;;;;;;5013273;28;20087;-75
2022/09/01 10:19:18;;;;;;;3.00;0.80;;;21.40;79.90;;;;;;5010517;28;20030;-75
2022/09/01 10:21:45;;;;;;;2.13;0.88;;;21.30;80.20;;;;;;5003353;28;20026;-75
2022/09/01 10:24:28;;;;;;;0.90;0.70;;;21.30;81.30;;;;;;5011916;28;20125;-75
2022/09/01 10:26:57;;;;;;;3.58;0.80;;;21.20;82.00;;;;;;5010031;28;20018;-75
2022/09/01 10:29:34;;;;;;;3.95;0.82;;;21.30;82.00;;;;;;5012473;28;20034;-75
2022/09/01 10:32:01;;;;;;;1.70;1.00;;;21.30;82.10;;;;;;5009853;28;20030;-75
2022/09/01 10:34:32;;;;;;;1.00;0.90;;;21.30;81.20;;;;;;5009009;28;20354;-74
2022/09/01 10:36:59;;;;;;;1.10;0.75;;;21.20;81.20;;;;;;5010869;28;20091;-75
2022/09/01 10:39:24;;;;;;;1.33;1.05;;;21.20;81.30;;;;;;5013959;28;20038;-75
2022/09/01 10:41:55;;;;;;;2.05;1.10;;;21.20;81.60;;;;;;5011174;28;20041;-75
2022/09/01 10:44:37;;;;;;;4.47;1.02;;;21.20;80.80;;;;;;5020701;28;20980;-74
2022/09/01 10:47:11;;;;;;;1.65;0.98;;;21.50;80.90;;;;;;5017662;28;20036;-75
2022/09/01 10:49:45;;;;;;;2.80;1.10;;;21.90;78.50;;;;;;5011784;28;20571;-75
2022/09/01 10:52:40;;;;;;;2.72;0.90;;;22.40;77.30;;;;;;5011864;28;20525;-76
2022/09/01 10:55:28;;;;;;;1.70;0.90;;;22.90;75.40;;;;;;5013493;28;20025;-74
2022/09/01 10:58:06;;;;;;;3.95;1.10;;;23.10;74.10;;;;;;5004086;28;20095;-75
2022/09/01 11:00:35;;;;;;;2.15;0.90;;;23.00;74.00;;;;;;5012978;28;20511;-75
2022/09/01 11:03:10;;;;;;;2.22;0.93;;;23.10;72.40;;;;;;5016450;28;20034;-75
2022/09/01 11:05:57;;;;;;;1.65;1.00;;;23.20;71.20;;;;;;5021179;28;20529;-74
2022/09/01 11:08:45;;;;;;;2.65;1.00;;;23.30;71.60;;;;;;4666666;28;10000330;-74
2022/09/01 11:11:27;;;;;;;3.28;0.98;;;23.50;70.10;;;;;;5011586;28;20671;-75
2022/09/01 11:14:00;;;;;;;1.33;1.00;;;23.80;69.40;;;;;;5011112;28;20037;-74
2022/09/01 11:16:31;;;;;;;2.53;0.80;;;23.80;67.20;;;;;;5014934;28;20045;-73
2022/09/01 11:19:25;;;;;;;1.95;0.90;;;23.80;66.30;;;;;;5006831;28;20041;-73
2022/09/01 11:22:12;;;;;;;2.17;0.82;;;23.70;67.90;;;;;;5004716;28;20050;-74
2022/09/01 11:24:37;;;;;;;0.80;0.80;;;23.50;67.10;;;;;;5005400;28;20096;-73
2022/09/01 11:27:05;;;;;;;3.05;1.10;;;23.30;67.80;;;;;;5014532;28;20030;-74
2022/09/01 11:30:01;;;;;;;1.30;1.00;;;23.10;67.50;;;;;;5007278;28;20033;-74
2022/09/01 11:32:33;;;;;;;2.88;1.05;;;22.80;67.80;;;;;;5006658;28;20069;-74
2022/09/01 11:35:04;;;;;;;1.13;0.80;;;22.70;68.40;;;;;;5004684;28;20026;-73
2022/09/01 11:37:31;;;;;;;1.08;0.98;;;22.80;68.80;;;;;;5014919;28;20038;-77
2022/09/01 11:40:06;;;;;;;3.17;0.93;;;23.10;66.00;;;;;;5004317;28;20478;-74
2022/09/01 11:42:39;;;;;;;1.98;0.90;;;23.40;65.20;;;;;;5002022;28;20049;-74
2022/09/01 11:45:22;;;;;;;1.17;0.80;;;23.50;63.70;;;;;;5013982;28;20095;-74
2022/09/01 11:47:59;;;;;;;1.63;0.90;;;23.40;64.20;;;;;;5015463;28;20030;-76
2022/09/01 11:50:31;;;;;;;2.45;0.80;;;23.30;64.10;;;;;;5018311;28;20681;-74
2022/09/01 11:53:03;;;;;;;2.28;0.90;;;23.10;64.50;;;;;;5010734;28;20068;-74
2022/09/01 11:55:38;;;;;;;1.33;0.90;;;22.90;65.00;;;;;;5005560;28;20034;-76
2022/09/01 11:58:08;;;;;;;2.17;0.80;;;22.80;65.00;;;;;;5016168;28;20025;-77
2022/09/01 12:00:39;;;;;;;3.85;0.88;;;22.80;65.00;;;;;;5016856;28;20051;-75
2022/09/01 12:03:28;;;;;;;3.72;1.00;;;22.70;63.00;;;;;;5003110;28;20021;-73
2022/09/01 12:05:59;;;;;;;2.75;0.98;;;22.70;63.90;;;;;;5006975;28;20033;-73
2022/09/01 12:08:28;;;;;;;1.45;1.00;;;22.70;64.80;;;;;;5013269;28;20029;-74
2022/09/01 12:11:26;;;;;;;3.55;1.30;;;22.80;63.80;;;;;;5022067;28;20040;-75
2022/09/01 12:14:03;;;;;;;3.17;1.00;;;22.80;63.40;;;;;;4984357;28;20069;-79
2022/09/01 12:16:33;;;;;;;1.52;0.82;;;22.80;63.20;;;;;;5014942;28;20140;-84
2022/09/01 12:18:59;;;;;;;1.92;0.90;;;22.60;63.20;;;;;;5011669;28;20033;-86
2022/09/01 12:21:37;;;;;;;0.85;0.85;;;22.50;63.50;;;;;;5012792;28;20025;-79
2022/09/01 12:24:32;;;;;;;1.73;1.08;;;22.40;63.20;;;;;;4670680;28;9999972;-77
2022/09/01 12:27:00;;;;;;;2.25;0.90;;;22.20;64.20;;;;;;5015070;28;20057;-79
2022/09/01 12:29:26;;;;;;;0.98;0.82;;;22.10;64.30;;;;;;5012247;28;20033;-78
2022/09/01 12:31:53;;;;;;;1.20;1.00;;;22.10;63.80;;;;;;5005083;28;20262;-75
2022/09/01 12:34:40;;;;;;;4.10;0.90;;;22.10;64.20;;;;;;5004492;28;20568;-84
2022/09/01 12:37:15;;;;;;;1.05;0.80;;;22.00;64.90;;;;;;5017971;28;20041;-77
2022/09/01 12:39:50;;;;;;;4.45;1.00;;;21.90;65.30;;;;;;5012771;28;20263;-78
2022/09/01 12:42:18;;;;;;;1.55;0.88;;;21.80;65.20;;;;;;5018717;28;20075;-78
2022/09/01 12:44:50;;;;;;;1.33;0.80;;;21.80;65.00;;;;;;5019424;28;20112;-78
2022/09/01 12:47:37;;;;;;;3.25;1.00;;;21.70;65.00;;;;;;5016324;28;20024;-78
2022/09/01 12:50:07;;;;;;;8.00;1.08;;;21.70;65.50;;;;;;5023860;28;20083;-77
2022/09/01 12:52:42;;;;;;;1.65;0.90;;;21.60;65.10;;;;;;5015508;28;20060;-77
2022/09/01 12:55:21;;;;;;;1.63;0.90;;;21.50;66.10;;;;;;5015471;28;20092;-77
2022/09/01 12:57:53;;;;;;;1.52;0.90;;;21.60;65.30;;;;;;5013301;28;20034;-75
2022/09/01 13:00:29;;;;;;;2.15;0.80;;;21.80;65.00;;;;;;5017255;28;20044;-77
2022/09/01 13:03:12;;;;;;;1.25;0.85;;;22.10;64.00;;;;;;5023387;28;20033;-77
2022/09/01 13:05:43;;;;;;;1.80;0.90;;;22.40;63.70;;;;;;5015742;28;20032;-77
2022/09/01 13:08:12;;;;;;;1.27;0.82;;;22.70;61.60;;;;;;5024155;28;20033;-78
2022/09/01 13:10:45;;;;;;;1.15;0.70;;;22.90;60.20;;;;;;5023856;28;20021;-78
2022/09/01 13:13:11;;;;;;;6.10;0.90;;;23.00;59.50;;;;;;5014826;28;20036;-77